createdAt,value
2022-12-25T00:01:21.648Z,2.93
2022-12-25T00:03:48.964Z,2.92
2022-12-25T00:06:15.689Z,2.92
2022-12-25T00:08:42.619Z,2.94
2022-12-25T00:11:14.112Z,2.93
2022-12-25T00:13:41.349Z,2.97
2022-12-25T00:16:18.738Z,2.99
2022-12-25T00:18:46.060Z,2.92
2022-12-25T00:21:13.275Z,2.95
2022-12-25T00:23:40.236Z,2.97
2022-12-25T00:26:10.252Z,2.95
2022-12-25T00:28:37.235Z,2.94
2022-12-25T00:31:13.599Z,2.97
2022-12-25T00:33:44.031Z,2.99
2022-12-25T00:36:11.996Z,2.92
2022-12-25T00:38:40.379Z,2.97
2022-12-25T00:41:15.853Z,3.02
2022-12-25T00:43:42.483Z,2.98
2022-12-25T00:46:11.090Z,3.00
2022-12-25T00:48:38.503Z,2.99
2022-12-25T00:51:07.521Z,2.99
2022-12-25T00:53:34.099Z,2.95
2022-12-25T00:56:03.936Z,2.94
2022-12-25T00:58:32.330Z,2.93
2022-12-25T01:00:59.091Z,2.90
2022-12-25T01:03:26.642Z,2.88
2022-12-25T01:06:01.771Z,2.90
2022-12-25T01:08:30.760Z,2.92
2022-12-25T01:11:00.448Z,2.91
2022-12-25T01:13:28.452Z,2.89
2022-12-25T01:15:55.130Z,2.88
2022-12-25T01:18:23.608Z,2.88
2022-12-25T01:20:50.995Z,2.87
2022-12-25T01:23:17.717Z,2.88
2022-12-25T01:25:45.575Z,2.86
2022-12-25T01:28:12.199Z,2.88
2022-12-25T01:30:40.428Z,2.89
2022-12-25T01:33:07.099Z,2.91
2022-12-25T01:35:33.678Z,2.91
2022-12-25T01:38:00.330Z,2.94
2022-12-25T01:40:27.196Z,2.97
2022-12-25T01:42:53.781Z,2.93
2022-12-25T01:45:34.639Z,2.94
2022-12-25T01:48:05.058Z,2.92
2022-12-25T01:50:32.790Z,2.94
2022-12-25T01:52:59.496Z,2.93
2022-12-25T01:55:27.865Z,2.93
2022-12-25T01:57:54.881Z,2.91
2022-12-25T02:00:21.543Z,2.87
2022-12-25T02:02:49.027Z,2.88
2022-12-25T02:05:30.582Z,2.92
2022-12-25T02:08:02.607Z,3.00
2022-12-25T02:10:29.201Z,2.92
2022-12-25T02:12:56.139Z,2.91
2022-12-25T02:15:30.009Z,2.87
2022-12-25T02:18:09.364Z,2.85
2022-12-25T02:21:09.110Z,2.89
2022-12-25T02:24:08.438Z,2.91
2022-12-25T02:26:56.927Z,2.92
2022-12-25T02:29:44.924Z,2.91
2022-12-25T02:32:40.727Z,2.92
2022-12-25T02:35:39.564Z,2.93
2022-12-25T02:38:33.517Z,2.97
2022-12-25T02:41:06.957Z,2.94
2022-12-25T02:43:57.646Z,2.86
2022-12-25T02:46:43.380Z,2.84
2022-12-25T02:49:35.682Z,2.89
2022-12-25T02:52:29.001Z,2.89
2022-12-25T02:55:20.338Z,2.85
2022-12-25T02:58:10.573Z,2.84
2022-12-25T03:01:01.487Z,2.80
2022-12-25T03:03:51.738Z,2.76
2022-12-25T03:06:39.230Z,2.75
2022-12-25T03:09:27.355Z,2.73
2022-12-25T03:12:15.601Z,2.70
2022-12-25T03:15:00.740Z,2.65
2022-12-25T03:17:27.403Z,2.60
2022-12-25T03:20:12.739Z,2.56
2022-12-25T03:23:01.138Z,2.46
2022-12-25T03:25:47.354Z,2.38
2022-12-25T03:28:14.398Z,2.23
2022-12-25T03:31:20.191Z,2.10
2022-12-25T03:34:22.449Z,1.94
2022-12-25T03:37:32.448Z,1.79
2022-12-25T03:40:58.625Z,1.70
2022-12-25T03:43:59.148Z,1.55
2022-12-25T03:46:51.444Z,1.41
2022-12-25T03:49:58.061Z,1.35
2022-12-25T03:52:46.980Z,1.25
2022-12-25T03:55:34.489Z,1.17
2022-12-25T03:58:19.734Z,1.09
2022-12-25T04:01:04.582Z,1.05
2022-12-25T04:03:49.882Z,1.01
2022-12-25T04:06:34.987Z,0.98
2022-12-25T04:09:20.078Z,0.94
2022-12-25T04:12:05.581Z,0.97
2022-12-25T04:14:50.795Z,1.00
2022-12-25T04:17:35.999Z,1.05
2022-12-25T04:20:20.850Z,1.20
2022-12-25T04:23:06.137Z,1.29
2022-12-25T04:25:51.152Z,1.36
2022-12-25T04:28:36.024Z,1.41
2022-12-25T04:31:21.249Z,1.45
2022-12-25T04:34:06.306Z,1.48
2022-12-25T04:36:32.953Z,1.50
2022-12-25T04:38:59.501Z,1.55
2022-12-25T04:41:26.127Z,1.61
2022-12-25T04:43:52.674Z,1.57
2022-12-25T04:46:19.391Z,1.59
2022-12-25T04:48:46.123Z,1.48
2022-12-25T04:51:18.235Z,1.48
2022-12-25T04:53:46.052Z,1.47
2022-12-25T04:56:13.453Z,1.48
2022-12-25T04:58:40.323Z,1.46
2022-12-25T05:01:07.176Z,1.36
2022-12-25T05:03:34.249Z,1.24
2022-12-25T05:06:01.877Z,1.15
2022-12-25T05:08:29.975Z,1.05
2022-12-25T05:10:56.554Z,0.97
2022-12-25T05:13:23.648Z,0.91
2022-12-25T05:15:51.261Z,0.82
2022-12-25T05:18:18.062Z,0.73
2022-12-25T05:20:51.853Z,0.67
2022-12-25T05:23:18.468Z,0.61
2022-12-25T05:25:45.032Z,0.57
2022-12-25T05:28:11.601Z,0.47
2022-12-25T05:30:38.275Z,0.36
2022-12-25T05:33:05.057Z,0.32
2022-12-25T05:35:31.700Z,0.28
2022-12-25T05:37:58.597Z,0.28
2022-12-25T05:40:25.193Z,0.24
2022-12-25T05:42:51.764Z,0.20
2022-12-25T05:45:18.426Z,0.12
2022-12-25T05:47:45.050Z,0.20
2022-12-25T05:50:11.627Z,0.14
2022-12-25T05:52:38.332Z,0.09
2022-12-25T05:55:05.646Z,0.04
2022-12-25T05:57:33.025Z,0.06
2022-12-25T05:59:59.629Z,0.09
2022-12-25T06:02:26.628Z,0.04
2022-12-25T06:04:53.374Z,0.01
2022-12-25T06:07:20.009Z,-0.03
2022-12-25T06:09:46.600Z,-0.02
2022-12-25T06:12:13.296Z,-0.04
2022-12-25T06:14:39.866Z,-0.02
2022-12-25T06:17:06.463Z,0.03
2022-12-25T06:19:33.048Z,-0.03
2022-12-25T06:21:59.677Z,-0.05
2022-12-25T06:24:26.612Z,-0.03
2022-12-25T06:26:53.264Z,-0.05
2022-12-25T06:29:19.885Z,-0.01
2022-12-25T06:31:46.506Z,0.01
2022-12-25T06:34:16.417Z,0.01
2022-12-25T06:36:43.338Z,0.06
2022-12-25T06:39:10.168Z,0.02
2022-12-25T06:41:36.878Z,0.00
2022-12-25T06:44:03.524Z,0.01
2022-12-25T06:46:30.962Z,0.12
2022-12-25T06:48:58.631Z,0.27
2022-12-25T06:51:28.243Z,0.35
2022-12-25T06:53:55.718Z,0.44
2022-12-25T06:56:24.928Z,0.56
2022-12-25T06:58:54.156Z,0.63
2022-12-25T07:01:36.358Z,0.70
2022-12-25T07:04:06.084Z,0.82
2022-12-25T07:06:32.902Z,0.88
2022-12-25T07:08:59.519Z,0.93
2022-12-25T07:11:26.346Z,1.07
2022-12-25T07:13:52.921Z,1.13
2022-12-25T07:16:20.194Z,1.19
2022-12-25T07:18:46.966Z,1.29
2022-12-25T07:21:17.063Z,1.37
2022-12-25T07:23:45.202Z,1.45
2022-12-25T07:26:13.166Z,1.52
2022-12-25T07:28:40.189Z,1.62
2022-12-25T07:31:10.875Z,1.68
2022-12-25T07:33:37.507Z,1.74
2022-12-25T07:36:05.539Z,1.80
2022-12-25T07:38:32.554Z,1.89
2022-12-25T07:40:59.367Z,1.95
2022-12-25T07:43:26.494Z,2.03
2022-12-25T07:46:00.582Z,2.16
2022-12-25T07:48:27.932Z,2.23
2022-12-25T07:50:59.608Z,2.26
2022-12-25T07:53:26.699Z,2.34
2022-12-25T07:56:04.751Z,2.39
2022-12-25T07:58:31.626Z,2.48
2022-12-25T08:01:11.727Z,2.51
2022-12-25T08:03:38.678Z,2.49
2022-12-25T08:06:07.808Z,2.56
2022-12-25T08:08:36.062Z,2.61
2022-12-25T08:11:03.389Z,2.77
2022-12-25T08:13:31.917Z,2.79
2022-12-25T08:16:00.221Z,2.82
2022-12-25T08:18:30.327Z,2.86
2022-12-25T08:21:02.727Z,2.90
2022-12-25T08:23:29.614Z,2.92
2022-12-25T08:26:05.450Z,3.12
2022-12-25T08:28:34.123Z,3.23
2022-12-25T08:31:10.565Z,3.34
2022-12-25T08:33:37.820Z,3.34
2022-12-25T08:36:06.729Z,3.46
2022-12-25T08:38:33.474Z,3.48
2022-12-25T08:41:00.368Z,3.42
2022-12-25T08:43:27.064Z,3.43
2022-12-25T08:45:53.675Z,3.42
2022-12-25T08:48:20.518Z,3.49
2022-12-25T08:50:51.741Z,3.65
2022-12-25T08:53:19.349Z,3.79
2022-12-25T08:55:46.074Z,3.89
2022-12-25T08:58:14.610Z,4.10
2022-12-25T09:00:41.464Z,4.26
2022-12-25T09:03:08.389Z,4.40
2022-12-25T09:05:36.040Z,4.59
2022-12-25T09:08:02.618Z,4.76
2022-12-25T09:10:29.610Z,5.00
2022-12-25T09:12:56.262Z,5.15
2022-12-25T09:15:22.854Z,5.35
2022-12-25T09:17:49.529Z,5.69
2022-12-25T09:20:16.168Z,6.19
2022-12-25T09:22:42.822Z,7.29
2022-12-25T09:25:09.901Z,8.62
2022-12-25T09:27:36.493Z,8.29
2022-12-25T09:30:04.057Z,8.52
2022-12-25T09:32:30.707Z,8.35
2022-12-25T09:34:57.286Z,8.76
2022-12-25T09:37:23.888Z,10.23
2022-12-25T09:39:50.463Z,10.84
2022-12-25T09:42:22.470Z,12.88
2022-12-25T09:44:57.747Z,12.92
2022-12-25T09:47:29.543Z,12.45
2022-12-25T09:49:58.868Z,11.06
2022-12-25T09:52:35.574Z,11.31
2022-12-25T09:55:08.427Z,13.52
2022-12-25T09:57:35.001Z,14.20
2022-12-25T10:00:01.629Z,15.23
2022-12-25T10:02:36.925Z,16.14
2022-12-25T10:05:17.816Z,16.65
2022-12-25T10:07:54.674Z,16.64
2022-12-25T10:10:59.636Z,16.82
2022-12-25T10:13:47.769Z,16.24
2022-12-25T10:16:39.374Z,14.83
2022-12-25T10:19:18.990Z,14.97
2022-12-25T10:21:47.271Z,15.39
2022-12-25T10:24:38.518Z,15.41
2022-12-25T10:27:26.382Z,15.65
2022-12-25T10:29:56.860Z,15.97
2022-12-25T10:32:23.513Z,14.65
2022-12-25T10:34:50.702Z,14.62
2022-12-25T10:37:17.473Z,14.90
2022-12-25T10:39:46.981Z,15.50
2022-12-25T10:42:43.786Z,16.61
2022-12-25T10:45:10.631Z,17.51
2022-12-25T10:47:42.496Z,19.08
2022-12-25T10:50:23.022Z,19.84
2022-12-25T10:53:05.208Z,21.33
2022-12-25T10:55:33.016Z,22.11
2022-12-25T10:58:01.940Z,21.69
2022-12-25T11:00:32.116Z,21.56
2022-12-25T11:02:59.655Z,20.69
2022-12-25T11:05:30.108Z,21.99
2022-12-25T11:08:00.072Z,21.87
2022-12-25T11:10:36.532Z,19.98
2022-12-25T11:13:07.529Z,19.71
2022-12-25T11:15:48.516Z,19.81
2022-12-25T11:18:26.821Z,18.85
2022-12-25T11:20:58.960Z,18.73
2022-12-25T11:23:28.339Z,17.96
2022-12-25T11:25:56.257Z,17.86
2022-12-25T11:28:24.169Z,16.56
2022-12-25T11:30:57.925Z,15.09
2022-12-25T11:33:35.116Z,13.95
2022-12-25T11:36:08.952Z,12.47
2022-12-25T11:38:35.593Z,11.97
2022-12-25T11:41:04.471Z,11.64
2022-12-25T11:43:40.396Z,11.33
2022-12-25T11:46:29.059Z,10.91
2022-12-25T11:49:05.439Z,11.17
2022-12-25T11:51:40.849Z,11.48
2022-12-25T11:54:10.412Z,12.25
2022-12-25T11:56:37.884Z,14.36
2022-12-25T11:59:18.379Z,16.54
2022-12-25T12:01:50.037Z,18.57
2022-12-25T12:04:29.626Z,19.44
2022-12-25T12:07:13.287Z,20.59
2022-12-25T12:10:00.527Z,21.80
2022-12-25T12:12:48.879Z,22.05
2022-12-25T12:15:35.866Z,22.75
2022-12-25T12:18:19.107Z,23.35
2022-12-25T12:20:57.189Z,23.61
2022-12-25T12:23:24.212Z,22.89
2022-12-25T12:25:51.788Z,22.86
2022-12-25T12:28:27.559Z,22.27
2022-12-25T12:31:00.944Z,22.86
2022-12-25T12:33:36.410Z,24.37
2022-12-25T12:36:05.411Z,24.67
2022-12-25T12:38:34.017Z,24.50
2022-12-25T12:41:02.884Z,24.69
2022-12-25T12:43:32.584Z,24.50
2022-12-25T12:46:30.062Z,23.28
2022-12-25T12:49:32.740Z,23.55
2022-12-25T12:52:27.236Z,24.10
2022-12-25T12:55:06.165Z,23.28
2022-12-25T12:57:39.598Z,22.64
2022-12-25T13:00:15.529Z,20.84
2022-12-25T13:03:17.600Z,21.35
2022-12-25T13:05:50.336Z,19.62
2022-12-25T13:08:26.329Z,19.54
2022-12-25T13:11:05.489Z,19.07
2022-12-25T13:13:39.942Z,19.23
2022-12-25T13:16:13.590Z,18.95
2022-12-25T13:18:40.264Z,18.86
2022-12-25T13:21:07.490Z,18.14
2022-12-25T13:23:39.056Z,17.42
2022-12-25T13:26:17.526Z,16.97
2022-12-25T13:28:46.332Z,16.85
2022-12-25T13:31:12.860Z,17.25
2022-12-25T13:33:41.055Z,17.66
2022-12-25T13:36:13.341Z,17.46
2022-12-25T13:38:46.096Z,17.10
2022-12-25T13:41:37.345Z,17.15
2022-12-25T13:44:20.667Z,16.54
2022-12-25T13:46:48.255Z,16.12
2022-12-25T13:49:17.371Z,15.40
2022-12-25T13:51:44.184Z,15.02
2022-12-25T13:54:13.147Z,14.39
2022-12-25T13:56:52.004Z,13.81
2022-12-25T13:59:22.010Z,13.12
2022-12-25T14:01:50.307Z,12.36
2022-12-25T14:04:20.850Z,12.11
2022-12-25T14:06:48.240Z,11.80
2022-12-25T14:09:16.120Z,11.30
2022-12-25T14:11:48.767Z,11.14
2022-12-25T14:14:22.301Z,10.86
2022-12-25T14:16:50.833Z,10.52
2022-12-25T14:19:27.834Z,10.27
2022-12-25T14:22:19.769Z,10.17
2022-12-25T14:24:47.343Z,10.11
2022-12-25T14:27:23.878Z,10.02
2022-12-25T14:29:54.035Z,9.99
2022-12-25T14:32:23.978Z,9.67
2022-12-25T14:34:54.234Z,9.43
2022-12-25T14:37:23.914Z,9.31
2022-12-25T14:40:06.748Z,9.03
2022-12-25T14:42:37.173Z,8.83
2022-12-25T14:45:26.789Z,8.63
2022-12-25T14:47:56.233Z,8.47
2022-12-25T14:50:50.947Z,8.31
2022-12-25T14:53:21.533Z,8.13
2022-12-25T14:55:53.937Z,8.00
2022-12-25T14:58:23.574Z,7.86
2022-12-25T15:01:02.862Z,7.77
2022-12-25T15:03:40.358Z,7.56
2022-12-25T15:06:21.771Z,7.42
2022-12-25T15:09:03.048Z,7.22
2022-12-25T15:11:30.127Z,7.14
2022-12-25T15:13:56.707Z,6.99
2022-12-25T15:16:26.264Z,6.85
2022-12-25T15:18:53.694Z,6.69
2022-12-25T15:21:26.521Z,6.60
2022-12-25T15:23:57.955Z,6.48
2022-12-25T15:26:25.291Z,6.40
2022-12-25T15:28:52.015Z,6.22
2022-12-25T15:31:29.840Z,6.05
2022-12-25T15:33:58.605Z,5.95
2022-12-25T15:36:26.422Z,5.82
2022-12-25T15:38:54.020Z,5.67
2022-12-25T15:41:44.099Z,5.54
2022-12-25T15:44:12.089Z,5.42
2022-12-25T15:46:39.451Z,5.29
2022-12-25T15:49:06.073Z,5.30
2022-12-25T15:51:32.721Z,5.26
2022-12-25T15:53:59.660Z,5.18
2022-12-25T15:56:27.103Z,5.11
2022-12-25T15:58:53.723Z,5.00
2022-12-25T16:01:21.205Z,4.92
2022-12-25T16:03:47.921Z,4.77
2022-12-25T16:06:18.673Z,4.64
2022-12-25T16:08:45.774Z,4.59
2022-12-25T16:11:12.459Z,4.53
2022-12-25T16:13:39.141Z,4.47
2022-12-25T16:16:06.956Z,4.37
2022-12-25T16:18:33.855Z,4.30
2022-12-25T16:21:00.518Z,4.20
2022-12-25T16:23:27.233Z,4.25
2022-12-25T16:25:53.904Z,4.22
2022-12-25T16:28:20.528Z,4.13
2022-12-25T16:30:47.226Z,4.10
2022-12-25T16:33:13.861Z,4.03
2022-12-25T16:35:40.487Z,3.93
2022-12-25T16:38:07.132Z,3.79
2022-12-25T16:40:34.105Z,3.74
2022-12-25T16:43:00.771Z,3.70
2022-12-25T16:45:27.524Z,3.75
2022-12-25T16:47:54.107Z,3.80
2022-12-25T16:50:20.775Z,3.72
2022-12-25T16:52:47.338Z,3.72
2022-12-25T16:55:13.927Z,3.64
2022-12-25T16:57:40.515Z,3.59
2022-12-25T17:00:08.685Z,3.53
2022-12-25T17:02:35.456Z,3.40
2022-12-25T17:05:02.321Z,3.37
2022-12-25T17:07:28.886Z,3.36
2022-12-25T17:09:56.991Z,3.33
2022-12-25T17:12:23.613Z,3.28
2022-12-25T17:14:50.213Z,3.20
2022-12-25T17:17:16.792Z,3.22
2022-12-25T17:19:43.548Z,3.13
2022-12-25T17:22:10.599Z,3.11
2022-12-25T17:24:39.894Z,3.08
2022-12-25T17:27:08.620Z,3.05
2022-12-25T17:29:42.653Z,2.99
2022-12-25T17:32:10.726Z,2.98
2022-12-25T17:34:37.864Z,2.98
2022-12-25T17:37:06.480Z,2.93
2022-12-25T17:39:33.119Z,2.91
2022-12-25T17:41:59.750Z,2.80
2022-12-25T17:44:27.296Z,2.74
2022-12-25T17:46:53.986Z,2.72
2022-12-25T17:49:22.664Z,2.71
2022-12-25T17:51:49.286Z,2.69
2022-12-25T17:54:15.914Z,2.67
2022-12-25T17:56:42.547Z,2.60
2022-12-25T17:59:17.932Z,2.58
2022-12-25T18:01:45.848Z,2.55
2022-12-25T18:04:12.946Z,2.50
2022-12-25T18:06:39.601Z,2.44
2022-12-25T18:09:06.940Z,2.47
2022-12-25T18:11:33.621Z,2.45
2022-12-25T18:14:05.764Z,2.43
2022-12-25T18:16:37.094Z,2.34
2022-12-25T18:19:04.029Z,2.37
2022-12-25T18:21:30.963Z,2.29
2022-12-25T18:23:57.610Z,2.27
2022-12-25T18:26:25.924Z,2.14
2022-12-25T18:28:52.861Z,2.15
2022-12-25T18:31:21.957Z,2.13
2022-12-25T18:33:49.196Z,2.11
2022-12-25T18:36:20.249Z,2.05
2022-12-25T18:38:48.268Z,1.97
2022-12-25T18:41:15.018Z,1.88
2022-12-25T18:43:52.947Z,1.90
2022-12-25T18:46:26.676Z,1.89
2022-12-25T18:48:55.928Z,1.80
2022-12-25T18:51:22.767Z,1.76
2022-12-25T18:53:49.867Z,1.76
2022-12-25T18:56:18.140Z,1.72
2022-12-25T18:58:46.308Z,1.67
2022-12-25T19:01:21.575Z,1.62
2022-12-25T19:03:49.475Z,1.68
2022-12-25T19:06:22.142Z,1.64
2022-12-25T19:08:49.202Z,1.60
2022-12-25T19:11:16.417Z,1.55
2022-12-25T19:13:43.418Z,1.47
2022-12-25T19:16:10.677Z,1.47
2022-12-25T19:18:38.289Z,1.41
2022-12-25T19:21:07.266Z,1.37
2022-12-25T19:23:34.740Z,1.41
2022-12-25T19:26:04.070Z,1.31
2022-12-25T19:28:30.697Z,1.34
2022-12-25T19:31:00.769Z,1.26
2022-12-25T19:33:27.902Z,1.31
2022-12-25T19:35:59.415Z,1.27
2022-12-25T19:38:25.987Z,1.24
2022-12-25T19:41:01.939Z,1.24
2022-12-25T19:43:30.388Z,1.29
2022-12-25T19:45:59.505Z,1.19
2022-12-25T19:48:26.135Z,1.13
2022-12-25T19:50:52.997Z,1.11
2022-12-25T19:53:23.171Z,1.15
2022-12-25T19:55:53.729Z,1.10
2022-12-25T19:58:22.232Z,1.11
2022-12-25T20:01:05.866Z,1.17
2022-12-25T20:03:45.343Z,1.14
2022-12-25T20:06:21.856Z,1.13
2022-12-25T20:08:50.691Z,1.13
2022-12-25T20:11:17.564Z,1.09
2022-12-25T20:13:44.785Z,1.01
2022-12-25T20:16:11.983Z,0.97
2022-12-25T20:18:39.657Z,0.93
2022-12-25T20:21:17.907Z,0.86
2022-12-25T20:23:46.512Z,0.84
2022-12-25T20:26:14.948Z,0.85
2022-12-25T20:28:42.350Z,0.88
2022-12-25T20:31:13.997Z,0.90
2022-12-25T20:33:40.934Z,0.88
2022-12-25T20:36:08.078Z,0.79
2022-12-25T20:38:35.190Z,0.75
2022-12-25T20:43:52.739Z,0.71
2022-12-25T20:46:19.688Z,0.61
2022-12-25T20:48:46.409Z,0.58
2022-12-25T20:51:14.421Z,0.63
2022-12-25T20:53:41.837Z,0.56
2022-12-25T20:56:10.489Z,0.55
2022-12-25T20:58:37.850Z,0.52
2022-12-25T21:01:07.205Z,0.53
2022-12-25T21:03:34.966Z,0.53
2022-12-25T21:06:01.932Z,0.52
2022-12-25T21:08:29.492Z,0.46
2022-12-25T21:11:00.771Z,0.40
2022-12-25T21:13:30.775Z,0.39
2022-12-25T21:15:58.072Z,0.35
2022-12-25T21:18:26.656Z,0.31
2022-12-25T21:20:56.582Z,0.26
2022-12-25T21:23:23.660Z,0.31
2022-12-25T21:25:50.250Z,0.32
2022-12-25T21:28:17.008Z,0.35
2022-12-25T21:30:43.723Z,0.27
2022-12-25T21:33:31.179Z,0.26
2022-12-25T21:36:11.442Z,0.23
2022-12-25T21:38:38.868Z,0.14
2022-12-25T21:41:07.699Z,0.08
2022-12-25T21:43:35.345Z,0.03
2022-12-25T21:46:07.689Z,-0.03
2022-12-25T21:48:36.473Z,-0.10
2022-12-25T21:51:24.024Z,-0.14
2022-12-25T21:53:51.209Z,-0.11
2022-12-25T21:56:18.324Z,-0.19
2022-12-25T21:58:44.932Z,-0.19
2022-12-25T22:01:11.849Z,-0.17
2022-12-25T22:03:38.612Z,-0.12
2022-12-25T22:06:24.149Z,-0.10
2022-12-25T22:08:50.767Z,-0.13
2022-12-25T22:11:35.613Z,-0.13
2022-12-25T22:14:20.823Z,-0.14
2022-12-25T22:17:26.223Z,-0.10
2022-12-25T22:19:52.936Z,-0.26
2022-12-25T22:22:22.805Z,-0.25
2022-12-25T22:24:51.291Z,-0.24
2022-12-25T22:27:18.658Z,-0.31
2022-12-25T22:29:45.399Z,-0.30
2022-12-25T22:32:13.420Z,-0.26
2022-12-25T22:34:40.112Z,-0.26
2022-12-25T22:37:09.427Z,-0.27
2022-12-25T22:39:36.236Z,-0.33
2022-12-25T22:42:02.897Z,-0.31
2022-12-25T22:44:31.156Z,-0.32
2022-12-25T22:46:57.850Z,-0.45
2022-12-25T22:49:25.755Z,-0.40
2022-12-25T22:51:54.203Z,-0.44
2022-12-25T22:54:22.160Z,-0.40
2022-12-25T22:56:50.927Z,-0.37
2022-12-25T22:59:20.332Z,-0.42
2022-12-25T23:01:47.467Z,-0.51
2022-12-25T23:04:14.183Z,-0.49
2022-12-25T23:06:41.875Z,-0.51
2022-12-25T23:09:09.129Z,-0.54
2022-12-25T23:11:35.952Z,-0.54
2022-12-25T23:14:21.809Z,-0.51
2022-12-25T23:16:48.440Z,-0.48
2022-12-25T23:19:33.640Z,-0.49
2022-12-25T23:22:19.399Z,-0.51
2022-12-25T23:25:04.218Z,-0.54
2022-12-25T23:27:30.799Z,-0.57
2022-12-25T23:29:57.360Z,-0.58
2022-12-25T23:32:25.874Z,-0.43
2022-12-25T23:34:52.808Z,-0.45
2022-12-25T23:37:19.610Z,-0.50
2022-12-25T23:39:46.776Z,-0.50
2022-12-25T23:42:13.740Z,-0.57
2022-12-25T23:44:40.315Z,-0.58
2022-12-25T23:47:07.088Z,-0.59
2022-12-25T23:49:33.760Z,-0.63
2022-12-25T23:52:00.350Z,-0.66
2022-12-25T23:54:29.750Z,-0.64
2022-12-25T23:56:57.670Z,-0.67
2022-12-25T23:59:28.568Z,-0.62
